Flight Track Log - Related Links

Times and Time Zones

All times are in EDT time to prevent confusion due to time zone crossing. See the SWA3313 flight status page for this flight to view local times or setup timezone preferences in your user account.

Time Position Orientation Groundspeed Altitude Reporting Facility
EDT Latitude Longitude Course Direction KTS MPH feet Rate Location/Type
Fri 06:14:17 PM 42.9167 -71.4167 255° West 141 162 1,200  Level KA90
Fri 06:15:35 PM 42.9000 -71.5000 255° West 217 250 4,500 2,903 Climbing KA90
Fri 06:16:52 PM 42.9697 -71.5067 356° North 242 278 8,700 2,978 Climbing Boston Center
Fri 06:17:52 PM 42.9897 -71.4097 74° East 222 255 11,300 2,550 Climbing Boston Center
Fri 06:18:52 PM 43.0197 -71.2872 71° East 292 336 13,800 3,100 Climbing Boston Center
Fri 06:19:52 PM 43.0556 -71.1358 72° East 358 412 17,500 3,000 Climbing Boston Center
Fri 06:20:52 PM 43.0747 -70.9847 80° East 395 455 19,800 2,450 Climbing Boston Center
Fri 06:21:52 PM 42.9881 -70.8931 142° Southeast 328 377 22,400 2,500 Climbing Boston Center
Fri 06:22:52 PM 42.8761 -70.9300 194° South 296 341 24,800 2,350 Climbing Boston Center
Fri 06:23:52 PM 42.7617 -70.9553 189° South 356 410 27,100 2,250 Climbing Boston Center
Fri 06:24:52 PM 42.6408 -70.9556 180° South 401 461 29,300 2,350 Climbing Boston Center
Fri 06:25:52 PM 42.5197 -70.9500 178° South 425 489 31,800 2,300 Climbing Boston Center
Fri 06:26:52 PM 42.4033 -70.9697 187° South 436 502 33,900 1,100 Climbing Boston Center
Fri 06:27:52 PM 42.3403 -71.0833 233° Southwest 363 418 34,000 50 Climbing Boston Center
Fri 06:28:52 PM 42.2875 -71.2164 242° Southwest 373 429 34,000  Level Boston Center
Fri 06:29:52 PM 42.2347 -71.3464 241° Southwest 383 441 34,000  Level Boston Center
Fri 06:30:52 PM 42.1836 -71.4733 242° Southwest 390 449 34,000  Level Boston Center
Fri 06:31:52 PM 42.1306 -71.5892 238° Southwest 396 456 34,000  Level Boston Center
Fri 06:32:52 PM 42.0772 -71.7156 240° Southwest 396 456 34,000  Level Boston Center
Fri 06:33:52 PM 42.0258 -71.8419 241° Southwest 396 456 34,000  Level Boston Center
Fri 06:34:52 PM 41.9722 -71.9708 241° Southwest 401 461 34,000  Level Boston Center
Fri 06:35:52 PM 41.9164 -72.1025 240° Southwest 401 461 34,000  Level Boston Center
Fri 06:36:52 PM 41.8625 -72.2339 241° Southwest 401 461 34,000  Level Boston Center
Fri 06:37:52 PM 41.8064 -72.3650 240° Southwest 401 461 34,000  Level Boston Center
Fri 06:38:52 PM 41.7503 -72.4931 240° Southwest 401 461 34,000  Level Boston Center
Fri 06:39:52 PM 41.6958 -72.6236 241° Southwest 401 461 34,000  Level Boston Center
Fri 06:40:52 PM 41.6392 -72.7511 239° Southwest 401 461 34,000  Level Boston Center
Fri 06:41:52 PM 41.5847 -72.8814 241° Southwest 401 461 34,000  Level Boston Center
Fri 06:42:52 PM 41.5278 -73.0169 241° Southwest 401 461 34,000 -500 Level Boston Center
Fri 06:43:52 PM 41.4728 -73.1467 241° Southwest 395 455 33,000 -1,000 Descending Boston Center
Fri 06:44:52 PM 41.4178 -73.2733 240° Southwest 400 460 32,000 -1,000 Descending Boston Center
Fri 06:45:52 PM 41.3647 -73.3969 240° Southwest 395 455 31,000 -619 Descending Boston Center
Fri 06:48:06 PM 41.2431 -73.6492 237° Southwest 380 437 30,000 -309 Descending New York Center
Fri 06:49:06 PM 41.1781 -73.7594 232° Southwest 380 437 30,000  Level New York Center
Fri 06:50:04 PM 41.1106 -73.8692 231° Southwest 392 451 30,000  Level New York Center
Fri 06:51:05 PM 41.0472 -73.9764 232° Southwest 384 442 30,000 -344 Level New York Center
Fri 06:52:06 PM 40.9839 -74.0861 233° Southwest 379 436 29,300 -843 Descending New York Center
Fri 06:53:06 PM 40.9183 -74.1925 231° Southwest 379 436 28,300 -655 Descending New York Center
Fri 06:54:05 PM 40.8594 -74.2856 230° Southwest 379 436 28,000 -151 Descending New York Center
Fri 06:55:05 PM 40.7956 -74.3919 232° Southwest 379 436 28,000  Level New York Center
Fri 06:56:06 PM 40.7342 -74.4983 233° Southwest 379 436 28,000 -50 Level New York Center
Fri 06:57:06 PM 40.6683 -74.6014 230° Southwest 374 430 27,900 -550 Descending New York Center
Fri 06:58:06 PM 40.6064 -74.7044 232° Southwest 369 425 26,900 -1,017 Descending New York Center
Fri 06:59:04 PM 40.5406 -74.8044 229° Southwest 369 425 25,900 -1,008 Descending New York Center
Fri 07:00:05 PM 40.4728 -74.8961 226° Southwest 364 419 24,900 -942 Descending New York Center
Fri 07:01:05 PM 40.4047 -74.9956 228° Southwest 364 419 24,000 -893 Descending New York Center
Fri 07:02:06 PM 40.3344 -75.0919 226° Southwest 364 419 23,100 -950 Descending New York Center
Fri 07:03:05 PM 40.2661 -75.1911 228° Southwest 369 425 22,100 -1,000 Descending New York Center
Fri 07:04:06 PM 40.1936 -75.2897 226° Southwest 369 425 21,100 -992 Descending New York Center
Fri 07:05:06 PM 40.1275 -75.3858 228° Southwest 369 425 20,100 -1,017 Descending New York Center
Fri 07:06:04 PM 40.0569 -75.4817 226° Southwest 369 425 19,100 -1,017 Descending New York Center
Fri 07:07:04 PM 39.9908 -75.5719 226° Southwest 363 418 18,100 -793 Descending New York Center
Fri 07:08:05 PM 39.9244 -75.6647 227° Southwest 358 412 17,500 -793 Descending New York Center
Fri 07:09:05 PM 39.8700 -75.7692 236° Southwest 352 405 16,500 -756 Descending New York Center
Fri 07:10:04 PM 39.8114 -75.8731 234° Southwest 345 397 16,000 -250 Descending New York Center
Fri 07:11:05 PM 39.7589 -75.9747 236° Southwest 340 391 16,000 -1,379 Level New York Center
Fri 07:12:58 PM 39.6667 -76.1500 236° Southwest 314 361 12,000 -1,838 Descending Potomac TRACON
Fri 07:13:58 PM 39.6167 -76.2333 232° Southwest 276 318 10,700 -1,450 Descending Potomac TRACON
Fri 07:14:58 PM 39.5667 -76.3167 232° Southwest 278 320 9,100 -1,632 Descending Potomac TRACON
Fri 07:15:52 PM 39.5167 -76.3667 218° Southwest 275 316 7,600 -1,526 Descending Potomac TRACON
Fri 07:16:52 PM 39.4667 -76.4333 226° Southwest 270 311 6,200 -1,300 Descending Potomac TRACON
Fri 07:17:52 PM 39.4167 -76.5000 226° Southwest 270 311 5,000 -850 Descending Potomac TRACON
Fri 07:18:52 PM 39.3500 -76.4667 159° South 270 311 4,500 -500 Descending Potomac TRACON
Fri 07:19:52 PM 39.2833 -76.4167 150° Southeast 272 313 4,000 -250 Descending Potomac TRACON
Fri 07:20:52 PM 39.2167 -76.4167 180° South 258 297 4,000 -95 Level Potomac TRACON
Fri 07:21:58 PM 39.1500 -76.4333 191° South 221 254 3,800 -545 Descending Potomac TRACON
Fri 07:22:53 PM 39.1000 -76.4833 218° Southwest 224 258 2,900 -835 Descending Potomac TRACON
Fri 07:23:53 PM 39.0667 -76.5333 229° Southwest 194 223 2,200 -700 Descending Potomac TRACON

Login

Don't have an account? Register now (free) for customized features, flight alerts, and more!